Time;durP1;ratioP1;P1;durP2;ratioP2;P2;SDS_P1;SDS_P2;PMS_P1;PMS_P2;Temp;Humidity;BMP_temperature;BMP_pressure;BME280_temperature;BME280_humidity;BME280_pressure;Samples;Min_cycle;Max_cycle;Signal;HPM_P1;HPM_P2
2023/03/22 00:00:34;;;;;;;17.90;8.23;;;10.00;99.90;;;;;;5073230;28;20128;-34
2023/03/22 00:03:00;;;;;;;18.15;7.75;;;10.00;99.90;;;;;;5073419;28;20056;-34
2023/03/22 00:05:26;;;;;;;15.15;6.90;;;10.00;99.90;;;;;;5076473;28;20040;-35
2023/03/22 00:07:56;;;;;;;13.98;6.13;;;10.10;99.90;;;;;;5077491;28;20051;-35
2023/03/22 00:10:24;;;;;;;14.90;5.32;;;10.00;99.90;;;;;;5077979;28;20119;-35
2023/03/22 00:12:50;;;;;;;16.58;7.10;;;10.10;99.90;;;;;;5077174;28;20082;-35
2023/03/22 00:15:16;;;;;;;15.52;5.22;;;10.00;99.90;;;;;;5077263;28;20045;-34
2023/03/22 00:17:43;;;;;;;14.65;6.32;;;10.00;99.90;;;;;;5077254;28;20127;-35
2023/03/22 00:20:10;;;;;;;20.13;6.65;;;10.00;99.90;;;;;;5077412;28;20376;-35
2023/03/22 00:22:37;;;;;;;12.55;4.75;;;9.90;99.90;;;;;;5076681;28;20467;-34
2023/03/22 00:25:04;;;;;;;11.63;4.30;;;9.90;99.90;;;;;;5075907;28;20044;-35
2023/03/22 00:27:30;;;;;;;15.48;4.30;;;9.90;99.90;;;;;;5075751;28;20052;-35
2023/03/22 00:29:56;;;;;;;9.80;3.28;;;9.90;99.90;;;;;;5076991;28;20059;-34
2023/03/22 00:32:22;;;;;;;13.73;3.55;;;9.80;99.90;;;;;;5076940;28;20044;-34
2023/03/22 00:34:47;;;;;;;13.73;4.15;;;9.80;99.90;;;;;;5076010;28;20049;-35
2023/03/22 00:37:15;;;;;;;13.00;2.92;;;9.80;99.90;;;;;;5075699;28;20110;-35
2023/03/22 00:39:41;;;;;;;9.18;2.85;;;9.80;99.90;;;;;;5076056;28;20140;-35
2023/03/22 00:42:07;;;;;;;12.88;3.17;;;9.70;99.90;;;;;;5075561;28;20552;-35
2023/03/22 00:44:33;;;;;;;15.05;4.05;;;9.70;99.90;;;;;;5077515;28;20040;-34
2023/03/22 00:46:58;;;;;;;15.73;3.53;;;9.70;99.90;;;;;;5076579;28;20036;-35
2023/03/22 00:49:24;;;;;;;12.32;2.45;;;9.70;99.90;;;;;;5076659;28;20046;-35
2023/03/22 00:51:50;;;;;;;9.65;2.58;;;9.70;99.90;;;;;;5076558;28;20127;-34
2023/03/22 00:54:16;;;;;;;9.85;2.10;;;9.70;99.90;;;;;;5076517;28;20088;-34
2023/03/22 00:56:45;;;;;;;9.10;2.50;;;9.70;99.90;;;;;;5077046;28;20076;-35
2023/03/22 00:59:12;;;;;;;10.40;2.22;;;9.60;99.90;;;;;;5076731;28;20095;-35
2023/03/22 01:01:39;;;;;;;11.73;2.30;;;9.60;99.90;;;;;;5076415;28;20098;-35
2023/03/22 01:04:05;;;;;;;13.52;2.00;;;9.60;99.90;;;;;;5076913;28;20052;-34
2023/03/22 01:06:32;;;;;;;9.82;2.85;;;9.60;99.90;;;;;;5076241;28;20052;-35
2023/03/22 01:08:58;;;;;;;13.48;2.95;;;9.60;99.90;;;;;;5076257;28;20513;-35
2023/03/22 01:11:25;;;;;;;9.88;2.08;;;9.60;99.90;;;;;;5076470;28;20053;-35
2023/03/22 01:13:51;;;;;;;8.88;1.98;;;9.50;99.90;;;;;;5076916;28;20048;-35
2023/03/22 01:16:17;;;;;;;6.70;1.90;;;9.60;99.90;;;;;;5076047;28;20501;-34
2023/03/22 01:18:43;;;;;;;11.43;2.05;;;9.50;99.90;;;;;;5076119;28;20044;-34
2023/03/22 01:21:09;;;;;;;8.30;2.08;;;9.50;99.90;;;;;;5076046;28;20048;-35
2023/03/22 01:23:36;;;;;;;8.20;2.17;;;9.50;99.90;;;;;;5076009;28;20133;-35
2023/03/22 01:26:02;;;;;;;6.97;1.65;;;9.60;99.90;;;;;;5074992;28;20041;-34
2023/03/22 01:28:28;;;;;;;11.25;1.38;;;9.60;99.90;;;;;;5074801;28;20049;-34
2023/03/22 01:30:54;;;;;;;6.70;1.70;;;9.50;99.90;;;;;;5074898;28;20051;-36
2023/03/22 01:33:21;;;;;;;10.50;2.58;;;9.50;99.90;;;;;;5076643;28;20119;-34
2023/03/22 01:35:46;;;;;;;9.15;1.23;;;9.50;99.90;;;;;;5075803;28;20041;-34
2023/03/22 01:38:12;;;;;;;13.50;2.35;;;9.40;99.90;;;;;;5076548;28;20119;-34
2023/03/22 01:40:38;;;;;;;8.93;1.65;;;9.40;99.90;;;;;;5076119;28;20528;-34
2023/03/22 01:43:13;;;;;;;8.55;1.40;;;9.40;99.90;;;;;;5075696;28;20127;-35
2023/03/22 01:45:46;;;;;;;6.43;1.10;;;9.40;99.90;;;;;;5074793;28;20044;-35
2023/03/22 01:48:28;;;;;;;7.07;1.33;;;9.30;99.90;;;;;;5075903;28;20141;-34
2023/03/22 01:51:05;;;;;;;8.13;1.20;;;9.30;99.90;;;;;;5075558;28;20055;-35
2023/03/22 01:53:54;;;;;;;7.95;1.45;;;9.30;99.90;;;;;;5075746;28;20382;-33
2023/03/22 01:56:24;;;;;;;5.70;1.33;;;9.30;99.90;;;;;;5075165;28;20118;-35
2023/03/22 01:58:52;;;;;;;7.60;1.08;;;9.30;99.90;;;;;;5075302;28;20052;-34
2023/03/22 02:01:18;;;;;;;11.82;1.85;;;9.30;99.90;;;;;;5075299;28;20040;-34
2023/03/22 02:04:01;;;;;;;9.00;1.63;;;9.20;99.90;;;;;;5075236;28;20051;-33
2023/03/22 02:06:28;;;;;;;6.90;1.33;;;9.20;99.90;;;;;;5074354;28;20079;-33
2023/03/22 02:08:57;;;;;;;12.45;1.48;;;9.20;99.90;;;;;;5075114;28;20059;-34
2023/03/22 02:11:37;;;;;;;8.57;1.08;;;9.20;99.90;;;;;;5075095;28;20055;-34
2023/03/22 02:14:24;;;;;;;12.73;2.33;;;9.20;99.90;;;;;;5075556;28;20045;-35
2023/03/22 02:17:15;;;;;;;10.48;1.80;;;9.20;99.90;;;;;;5074304;28;20052;-34
2023/03/22 02:20:09;;;;;;;4.78;1.08;;;9.20;99.90;;;;;;5074912;28;20084;-33
2023/03/22 02:22:41;;;;;;;8.82;2.13;;;9.20;99.90;;;;;;5074878;28;20181;-35
2023/03/22 02:25:45;;;;;;;8.35;1.85;;;9.30;99.90;;;;;;5075076;28;20052;-34
2023/03/22 02:28:25;;;;;;;7.28;1.70;;;9.30;99.90;;;;;;5074278;28;20053;-34
2023/03/22 02:31:10;;;;;;;7.80;1.98;;;9.30;99.90;;;;;;5074992;28;20394;-35
2023/03/22 02:33:53;;;;;;;9.43;1.33;;;9.30;99.90;;;;;;5074665;28;20051;-34
2023/03/22 02:36:45;;;;;;;6.10;0.63;;;9.40;99.90;;;;;;5075163;28;20044;-34
2023/03/22 02:39:13;;;;;;;6.38;1.05;;;9.40;99.90;;;;;;5074344;28;20045;-34
2023/03/22 02:41:42;;;;;;;11.60;1.40;;;9.50;99.90;;;;;;5074520;28;20067;-33
2023/03/22 02:44:35;;;;;;;9.52;1.98;;;9.40;99.90;;;;;;5074450;28;20048;-33
2023/03/22 02:47:06;;;;;;;4.97;1.27;;;9.40;99.90;;;;;;5074332;28;20052;-33
2023/03/22 02:49:46;;;;;;;6.82;1.30;;;9.40;99.90;;;;;;5074572;28;20363;-34
2023/03/22 02:52:39;;;;;;;5.70;1.23;;;9.40;99.90;;;;;;5073428;28;20044;-33
2023/03/22 02:55:28;;;;;;;13.10;1.95;;;9.30;99.90;;;;;;5074849;28;20437;-34
2023/03/22 02:58:29;;;;;;;9.60;1.88;;;9.30;99.90;;;;;;5073237;28;20052;-33
2023/03/22 03:01:08;;;;;;;12.88;1.92;;;9.30;99.90;;;;;;5071076;28;20095;-35
2023/03/22 03:03:39;;;;;;;9.55;1.40;;;9.40;99.90;;;;;;5074159;28;20049;-33
2023/03/22 03:06:09;;;;;;;9.40;2.38;;;9.40;99.90;;;;;;5074309;28;20394;-33
2023/03/22 03:08:37;;;;;;;13.35;2.80;;;9.40;99.90;;;;;;5073385;28;20057;-34
2023/03/22 03:11:03;;;;;;;9.10;1.40;;;9.40;99.90;;;;;;5074534;28;20044;-34
2023/03/22 03:13:29;;;;;;;13.07;2.13;;;9.40;99.90;;;;;;5072868;28;20052;-34
2023/03/22 03:15:58;;;;;;;9.07;1.95;;;9.50;99.90;;;;;;5073908;28;20041;-34
2023/03/22 03:18:50;;;;;;;10.25;2.25;;;9.50;99.90;;;;;;5073904;28;20049;-34
2023/03/22 03:21:37;;;;;;;8.90;1.60;;;9.50;99.90;;;;;;5073280;28;20102;-34
2023/03/22 03:24:33;;;;;;;13.18;1.42;;;9.50;99.90;;;;;;5073859;28;20565;-34
2023/03/22 03:27:08;;;;;;;6.55;1.20;;;9.50;99.90;;;;;;5073737;28;20056;-33
2023/03/22 03:30:09;;;;;;;8.23;2.00;;;9.50;99.90;;;;;;5074634;28;20075;-33
2023/03/22 03:32:48;;;;;;;10.20;1.65;;;9.50;99.90;;;;;;5074597;28;20048;-33
2023/03/22 03:35:37;;;;;;;13.73;1.85;;;9.40;99.90;;;;;;5073453;28;20561;-33
2023/03/22 03:38:13;;;;;;;14.80;3.00;;;9.50;99.90;;;;;;5072139;28;20478;-33
2023/03/22 03:40:53;;;;;;;10.15;1.70;;;9.40;99.90;;;;;;5073289;28;20071;-34
2023/03/22 03:43:20;;;;;;;8.80;1.48;;;9.40;99.90;;;;;;5073912;28;20048;-35
2023/03/22 03:45:46;;;;;;;10.52;1.73;;;9.40;99.90;;;;;;5073525;28;20080;-32
2023/03/22 03:48:20;;;;;;;12.45;1.90;;;9.40;99.90;;;;;;5055904;28;20119;-34
2023/03/22 03:50:49;;;;;;;10.93;1.33;;;9.40;99.90;;;;;;5074395;28;20051;-34
2023/03/22 03:53:15;;;;;;;10.18;2.45;;;9.40;99.90;;;;;;5074335;28;20048;-33
2023/03/22 03:55:41;;;;;;;8.23;2.08;;;9.40;99.90;;;;;;5073489;28;20478;-33
2023/03/22 03:58:09;;;;;;;8.35;1.40;;;9.40;99.90;;;;;;5072579;28;20049;-33
2023/03/22 04:00:36;;;;;;;8.77;1.85;;;9.50;99.90;;;;;;5073469;28;20131;-34
2023/03/22 04:03:03;;;;;;;10.32;1.75;;;9.40;99.90;;;;;;5072262;28;20094;-33
2023/03/22 04:05:29;;;;;;;13.50;2.35;;;9.40;99.90;;;;;;5073347;28;20076;-33
2023/03/22 04:07:55;;;;;;;11.68;2.25;;;9.40;99.90;;;;;;5073637;28;20134;-33
2023/03/22 04:10:20;;;;;;;12.43;2.40;;;9.40;99.90;;;;;;5072392;28;20070;-32
2023/03/22 04:12:46;;;;;;;4.88;1.55;;;9.30;99.90;;;;;;5072391;28;20048;-33
2023/03/22 04:15:12;;;;;;;14.00;3.97;;;9.30;99.90;;;;;;5073318;28;20047;-32
2023/03/22 04:17:39;;;;;;;10.57;2.13;;;9.30;99.90;;;;;;5073848;28;20432;-33
2023/03/22 04:20:08;;;;;;;8.57;2.13;;;9.40;99.90;;;;;;5073276;28;20078;-33
2023/03/22 04:22:37;;;;;;;11.15;2.03;;;9.40;99.90;;;;;;5073227;28;20053;-32
2023/03/22 04:25:04;;;;;;;10.73;2.78;;;9.40;99.90;;;;;;5073377;28;20501;-33
2023/03/22 04:27:30;;;;;;;11.52;2.35;;;9.40;99.90;;;;;;5073472;28;20055;-32
2023/03/22 04:29:56;;;;;;;12.07;2.42;;;9.40;99.90;;;;;;5073142;28;20044;-32
2023/03/22 04:32:23;;;;;;;11.45;2.47;;;9.40;99.90;;;;;;5073165;28;20044;-32
2023/03/22 04:34:49;;;;;;;8.75;2.58;;;9.30;99.90;;;;;;5073102;28;20087;-32
2023/03/22 04:37:16;;;;;;;9.10;1.92;;;9.40;99.90;;;;;;5072976;28;20052;-32
2023/03/22 04:39:42;;;;;;;11.55;2.33;;;9.30;99.90;;;;;;5073093;28;20135;-33
2023/03/22 04:42:08;;;;;;;11.77;2.60;;;9.30;99.90;;;;;;5073389;28;20094;-32
2023/03/22 04:44:34;;;;;;;13.05;2.13;;;9.30;99.90;;;;;;5071871;28;20084;-33
2023/03/22 04:47:00;;;;;;;10.13;2.28;;;9.40;99.90;;;;;;5073506;28;20433;-32
2023/03/22 04:49:26;;;;;;;11.13;2.42;;;9.50;99.90;;;;;;5073261;28;20068;-32
2023/03/22 04:51:55;;;;;;;11.38;2.28;;;9.50;99.90;;;;;;5077045;28;20502;-33
2023/03/22 04:54:22;;;;;;;12.23;3.53;;;9.60;99.90;;;;;;5076845;28;20092;-32
2023/03/22 04:56:48;;;;;;;12.38;3.05;;;9.60;99.90;;;;;;5075342;28;20509;-33
2023/03/22 04:59:16;;;;;;;11.40;3.30;;;9.60;99.90;;;;;;5076442;28;20083;-32
2023/03/22 05:01:42;;;;;;;12.88;2.70;;;9.50;99.90;;;;;;5076475;28;20040;-32
2023/03/22 05:04:08;;;;;;;5.93;2.17;;;9.50;99.90;;;;;;5076369;28;20055;-32
2023/03/22 05:06:34;;;;;;;7.15;2.13;;;9.50;99.90;;;;;;5075137;28;20040;-33
2023/03/22 05:09:00;;;;;;;12.50;3.25;;;9.50;99.90;;;;;;5076552;28;20052;-32
2023/03/22 05:11:26;;;;;;;17.08;3.50;;;9.50;99.90;;;;;;5076221;28;20076;-32
2023/03/22 05:13:56;;;;;;;9.00;3.80;;;9.50;99.90;;;;;;5075161;28;20490;-32
2023/03/22 05:16:23;;;;;;;11.98;3.65;;;9.40;99.90;;;;;;5076117;28;20060;-32
2023/03/22 05:18:53;;;;;;;6.63;3.15;;;9.50;99.90;;;;;;5076366;28;20048;-32
2023/03/22 05:21:20;;;;;;;10.82;4.32;;;9.50;99.90;;;;;;5057884;28;20056;-32
2023/03/22 05:23:48;;;;;;;13.93;5.18;;;9.60;99.90;;;;;;5076861;28;20048;-33
2023/03/22 05:26:14;;;;;;;13.38;4.80;;;9.50;99.90;;;;;;5075678;28;20178;-32
2023/03/22 05:28:42;;;;;;;15.02;5.22;;;9.60;99.90;;;;;;5076766;28;20044;-33
2023/03/22 05:31:09;;;;;;;13.45;5.32;;;9.50;99.90;;;;;;5076531;28;20379;-33
2023/03/22 05:33:35;;;;;;;15.95;6.50;;;9.50;99.90;;;;;;5076425;28;20053;-32
2023/03/22 05:36:01;;;;;;;11.13;5.72;;;9.60;99.90;;;;;;5076090;28;20051;-32
2023/03/22 05:38:27;;;;;;;14.65;5.97;;;9.60;99.90;;;;;;5075599;28;20091;-33
2023/03/22 05:40:53;;;;;;;15.55;6.53;;;9.60;99.90;;;;;;5074454;28;20127;-32
2023/03/22 05:43:19;;;;;;;12.93;6.80;;;9.60;99.90;;;;;;5075978;28;20143;-32
2023/03/22 05:45:45;;;;;;;16.70;7.03;;;9.70;99.90;;;;;;5075541;28;20036;-32
2023/03/22 05:48:11;;;;;;;19.38;6.00;;;9.60;99.90;;;;;;5075609;28;20037;-32
2023/03/22 05:50:37;;;;;;;10.38;5.65;;;9.60;99.90;;;;;;5074808;28;20044;-32
2023/03/22 05:53:03;;;;;;;13.48;7.15;;;9.70;99.90;;;;;;5075535;28;20054;-33
2023/03/22 05:55:30;;;;;;;17.75;7.15;;;9.70;99.90;;;;;;5075440;28;20047;-33
2023/03/22 05:57:58;;;;;;;16.92;7.57;;;9.80;99.90;;;;;;5075396;28;20075;-32
2023/03/22 06:00:24;;;;;;;18.92;7.15;;;9.80;99.90;;;;;;5074394;28;20083;-32
2023/03/22 06:02:55;;;;;;;13.30;7.35;;;9.80;99.90;;;;;;5074472;28;20093;-32
2023/03/22 06:05:22;;;;;;;17.23;7.38;;;9.80;99.90;;;;;;5075200;28;20084;-32
2023/03/22 06:07:47;;;;;;;14.15;7.78;;;9.80;99.90;;;;;;5074198;28;20075;-32
2023/03/22 06:10:14;;;;;;;15.25;7.07;;;9.80;99.90;;;;;;5075965;28;20044;-32
2023/03/22 06:12:40;;;;;;;13.88;6.75;;;9.80;99.90;;;;;;5074591;28;20053;-32
2023/03/22 06:15:07;;;;;;;16.45;8.15;;;9.80;99.90;;;;;;5057430;28;20048;-32
2023/03/22 06:17:34;;;;;;;17.75;7.05;;;9.80;99.90;;;;;;5074995;28;20049;-32
2023/03/22 06:19:59;;;;;;;15.18;6.80;;;9.80;99.90;;;;;;5074606;28;20505;-32
2023/03/22 06:22:25;;;;;;;16.38;7.43;;;9.80;99.90;;;;;;5074913;28;20045;-32
2023/03/22 06:24:51;;;;;;;14.75;7.72;;;9.80;99.90;;;;;;5074864;28;20487;-31
2023/03/22 06:27:17;;;;;;;17.88;7.80;;;9.90;99.90;;;;;;5074774;28;20371;-31
2023/03/22 06:29:48;;;;;;;18.77;7.15;;;9.90;99.90;;;;;;5074727;28;20055;-32
2023/03/22 06:32:14;;;;;;;10.93;6.90;;;9.90;99.90;;;;;;5074587;28;20058;-33
2023/03/22 06:34:40;;;;;;;13.10;7.35;;;9.80;99.90;;;;;;5074693;28;20040;-33
2023/03/22 06:37:06;;;;;;;14.20;7.90;;;9.80;99.90;;;;;;5074587;28;20480;-32
2023/03/22 06:39:32;;;;;;;15.05;7.82;;;9.90;99.90;;;;;;5074453;28;20060;-32
2023/03/22 06:41:57;;;;;;;12.90;7.18;;;9.90;99.90;;;;;;5075282;28;20087;-31
2023/03/22 06:44:23;;;;;;;15.02;8.48;;;9.90;99.90;;;;;;5073325;28;20048;-32
2023/03/22 06:46:49;;;;;;;18.60;8.50;;;9.90;99.90;;;;;;5074331;28;20545;-32
2023/03/22 06:49:15;;;;;;;14.43;8.18;;;10.00;99.90;;;;;;5075189;28;20118;-31
2023/03/22 06:51:41;;;;;;;16.42;7.85;;;10.00;99.90;;;;;;5056720;28;20139;-31
2023/03/22 06:54:07;;;;;;;14.70;8.98;;;10.00;99.90;;;;;;5057413;28;20178;-32
2023/03/22 06:56:33;;;;;;;18.08;8.38;;;10.00;99.90;;;;;;5074782;28;20356;-32
2023/03/22 06:58:58;;;;;;;15.57;8.20;;;10.10;99.90;;;;;;5074204;28;20048;-31
2023/03/22 07:01:25;;;;;;;16.40;8.50;;;10.10;99.90;;;;;;5074101;28;20047;-32
2023/03/22 07:03:50;;;;;;;15.95;8.27;;;10.20;99.90;;;;;;5074061;28;20048;-32
2023/03/22 07:06:16;;;;;;;19.70;9.40;;;10.30;99.90;;;;;;5056415;28;20385;-32
2023/03/22 07:08:42;;;;;;;17.00;9.57;;;10.30;99.90;;;;;;5074018;28;20386;-32
2023/03/22 07:11:08;;;;;;;21.67;9.63;;;10.40;99.90;;;;;;5073980;28;20058;-32
2023/03/22 07:13:34;;;;;;;16.10;7.57;;;10.40;99.90;;;;;;5073714;28;20048;-32
2023/03/22 07:16:01;;;;;;;13.98;7.90;;;10.40;99.90;;;;;;5074541;28;20048;-32
2023/03/22 07:18:27;;;;;;;16.60;8.20;;;10.40;99.90;;;;;;5073885;28;20040;-31
2023/03/22 07:20:53;;;;;;;14.50;7.53;;;10.40;99.90;;;;;;5074490;28;20131;-31
2023/03/22 07:23:19;;;;;;;15.07;7.00;;;10.50;99.90;;;;;;5072663;28;20493;-30
2023/03/22 07:25:46;;;;;;;16.60;7.50;;;10.50;99.90;;;;;;5073715;28;20102;-32
2023/03/22 07:28:12;;;;;;;12.90;7.10;;;10.50;99.90;;;;;;5056996;28;20052;-31
2023/03/22 07:30:38;;;;;;;12.07;6.97;;;10.50;99.90;;;;;;5073745;28;20041;-31
2023/03/22 07:33:05;;;;;;;11.63;6.93;;;10.50;99.90;;;;;;5073722;28;20059;-31
2023/03/22 07:35:31;;;;;;;16.95;8.70;;;10.50;99.90;;;;;;5072991;28;20061;-31
2023/03/22 07:37:58;;;;;;;14.68;6.65;;;10.50;99.90;;;;;;5072497;28;20444;-32
2023/03/22 07:40:24;;;;;;;12.02;6.57;;;10.50;99.90;;;;;;5072478;28;20049;-31
2023/03/22 07:42:50;;;;;;;16.13;8.32;;;10.50;99.90;;;;;;5073592;28;20460;-33
2023/03/22 07:45:18;;;;;;;13.00;6.55;;;10.50;99.90;;;;;;5073815;28;20044;-31
2023/03/22 07:47:44;;;;;;;16.58;7.55;;;10.50;99.90;;;;;;5073560;28;20040;-32
2023/03/22 07:50:11;;;;;;;10.75;6.28;;;10.50;99.90;;;;;;5073810;28;20119;-31
2023/03/22 07:52:38;;;;;;;11.45;6.55;;;10.60;99.90;;;;;;5073547;28;20059;-31
2023/03/22 07:55:04;;;;;;;13.63;6.93;;;10.80;99.90;;;;;;5073796;28;20048;-31
2023/03/22 07:57:30;;;;;;;16.52;6.80;;;10.90;99.90;;;;;;5073209;28;20559;-32
2023/03/22 07:59:56;;;;;;;9.40;5.38;;;11.00;99.90;;;;;;5073482;28;20048;-32
2023/03/22 08:02:22;;;;;;;22.73;7.50;;;11.10;99.90;;;;;;5072304;28;20044;-31
2023/03/22 08:04:49;;;;;;;10.48;5.68;;;11.10;99.90;;;;;;5073365;28;20497;-31
2023/03/22 08:07:17;;;;;;;16.48;6.38;;;11.00;99.90;;;;;;5073318;28;20080;-31
2023/03/22 08:09:44;;;;;;;11.80;5.72;;;11.00;99.90;;;;;;5073967;28;20386;-31
2023/03/22 08:12:10;;;;;;;11.43;7.10;;;11.00;99.90;;;;;;5073719;28;20045;-31
2023/03/22 08:14:37;;;;;;;12.77;6.60;;;10.90;99.90;;;;;;5073291;28;20051;-31
2023/03/22 08:17:04;;;;;;;13.50;5.45;;;10.90;99.90;;;;;;5073567;28;20117;-31
2023/03/22 08:19:31;;;;;;;12.23;5.13;;;10.90;99.90;;;;;;5072553;28;20413;-31
2023/03/22 08:21:58;;;;;;;11.20;5.43;;;11.00;99.90;;;;;;5073575;28;20059;-31
2023/03/22 08:24:25;;;;;;;17.73;6.03;;;11.00;99.90;;;;;;5072556;28;20052;-31
2023/03/22 08:26:51;;;;;;;9.48;5.15;;;11.10;99.90;;;;;;5076884;28;20325;-30
2023/03/22 08:29:18;;;;;;;10.23;4.97;;;11.10;99.90;;;;;;5077304;28;20044;-30
2023/03/22 08:31:45;;;;;;;11.23;5.10;;;11.10;99.90;;;;;;5076961;28;20048;-30
2023/03/22 08:34:12;;;;;;;20.67;5.78;;;11.10;99.90;;;;;;5075791;28;20045;-30
2023/03/22 08:36:38;;;;;;;8.32;3.80;;;11.20;99.90;;;;;;5075686;28;20049;-30
2023/03/22 08:39:04;;;;;;;9.02;4.47;;;11.20;99.90;;;;;;5076805;28;20041;-30
2023/03/22 08:41:30;;;;;;;13.80;4.30;;;11.20;99.90;;;;;;5075259;28;20096;-30
2023/03/22 08:43:56;;;;;;;11.85;4.18;;;11.20;99.90;;;;;;5076808;28;20091;-30
2023/03/22 08:46:22;;;;;;;9.20;4.05;;;11.20;99.90;;;;;;5076938;28;20171;-31
2023/03/22 08:48:51;;;;;;;11.05;4.55;;;11.20;99.90;;;;;;5077213;28;20044;-32
2023/03/22 08:51:21;;;;;;;13.23;4.53;;;11.20;99.90;;;;;;5076608;28;20083;-31
2023/03/22 08:53:47;;;;;;;9.40;4.03;;;11.30;99.90;;;;;;5075370;28;20048;-30
2023/03/22 08:56:15;;;;;;;9.25;3.95;;;11.40;99.90;;;;;;5076255;28;20437;-30
2023/03/22 08:58:45;;;;;;;12.75;4.10;;;11.40;99.90;;;;;;5075348;28;20048;-29
2023/03/22 09:01:15;;;;;;;10.13;3.75;;;11.40;99.90;;;;;;5077313;28;20052;-30
2023/03/22 09:03:42;;;;;;;9.48;4.28;;;11.20;99.90;;;;;;5076422;28;20058;-29
2023/03/22 09:06:09;;;;;;;10.07;3.28;;;11.20;99.90;;;;;;5076230;28;20052;-30
2023/03/22 09:08:35;;;;;;;10.25;4.55;;;11.20;99.90;;;;;;5076230;28;20049;-29
2023/03/22 09:11:01;;;;;;;9.40;3.50;;;11.20;99.90;;;;;;5075951;28;20052;-29
2023/03/22 09:13:29;;;;;;;12.95;5.15;;;11.30;99.90;;;;;;5074922;28;20098;-30
2023/03/22 09:15:55;;;;;;;12.20;3.17;;;11.30;99.90;;;;;;5076169;28;20054;-30
2023/03/22 09:18:23;;;;;;;11.82;4.47;;;11.30;99.90;;;;;;5075582;28;20056;-29
2023/03/22 09:20:49;;;;;;;12.90;3.80;;;11.30;99.90;;;;;;5076120;28;20063;-29
2023/03/22 09:23:15;;;;;;;13.52;5.05;;;11.20;99.90;;;;;;5058458;28;20052;-30
2023/03/22 09:25:47;;;;;;;10.13;3.80;;;11.30;99.90;;;;;;5075971;28;20141;-29
2023/03/22 09:28:15;;;;;;;15.90;3.77;;;11.30;99.90;;;;;;5076537;28;20044;-30
2023/03/22 09:30:41;;;;;;;8.88;3.38;;;11.20;99.90;;;;;;5075980;28;20102;-29
2023/03/22 09:33:07;;;;;;;10.25;3.08;;;11.10;99.90;;;;;;5075932;28;20036;-30
2023/03/22 09:35:33;;;;;;;12.68;3.05;;;11.00;99.90;;;;;;5075889;28;20044;-30
2023/03/22 09:37:59;;;;;;;11.23;3.38;;;10.90;99.90;;;;;;5074276;28;20044;-29
2023/03/22 09:40:30;;;;;;;8.05;3.05;;;10.80;99.90;;;;;;5075181;28;20464;-29
2023/03/22 09:43:00;;;;;;;11.88;3.13;;;10.80;99.90;;;;;;5075739;28;20445;-29
2023/03/22 09:45:36;;;;;;;16.23;3.70;;;10.70;99.90;;;;;;5075673;28;20048;-29
2023/03/22 09:48:12;;;;;;;9.50;3.15;;;10.60;99.90;;;;;;5076190;28;20040;-29
2023/03/22 09:50:46;;;;;;;11.48;3.20;;;10.60;99.90;;;;;;5075913;28;20047;-29
2023/03/22 09:53:15;;;;;;;12.45;3.45;;;10.50;99.90;;;;;;5059449;28;20127;-29
2023/03/22 09:55:54;;;;;;;11.18;3.08;;;10.50;99.90;;;;;;5074797;28;20053;-29
2023/03/22 09:58:41;;;;;;;11.25;3.15;;;10.40;99.90;;;;;;5074865;28;20051;-29
2023/03/22 10:01:33;;;;;;;10.70;2.33;;;10.40;99.90;;;;;;5075398;28;20132;-29
2023/03/22 10:04:18;;;;;;;14.27;3.40;;;10.30;99.90;;;;;;5075206;28;20109;-29
2023/03/22 10:06:54;;;;;;;15.98;3.42;;;10.20;99.90;;;;;;5076009;28;20367;-30
2023/03/22 10:09:42;;;;;;;11.63;3.58;;;10.20;99.90;;;;;;5074597;28;20127;-30
2023/03/22 10:12:21;;;;;;;6.38;2.38;;;10.20;99.90;;;;;;5075149;28;20059;-29
2023/03/22 10:15:11;;;;;;;10.00;3.45;;;10.10;99.90;;;;;;5074466;28;20045;-31
2023/03/22 10:17:39;;;;;;;11.95;3.40;;;10.00;99.90;;;;;;5075640;28;20439;-30
2023/03/22 10:20:20;;;;;;;13.85;2.80;;;10.00;99.90;;;;;;5075047;28;20132;-31
2023/03/22 10:22:46;;;;;;;17.63;4.78;;;10.00;99.90;;;;;;5074690;28;20495;-32
2023/03/22 10:25:18;;;;;;;13.00;3.97;;;9.90;99.90;;;;;;5074758;28;20474;-32
2023/03/22 10:27:48;;;;;;;11.95;4.35;;;9.80;99.90;;;;;;5074876;28;20040;-32
2023/03/22 10:30:23;;;;;;;13.38;3.75;;;9.80;99.90;;;;;;5075353;28;20048;-30
2023/03/22 10:32:49;;;;;;;9.68;4.10;;;9.80;99.90;;;;;;5075217;28;20040;-31
2023/03/22 10:35:15;;;;;;;8.02;3.55;;;9.80;99.90;;;;;;5073550;28;20051;-32
2023/03/22 10:37:45;;;;;;;12.38;4.15;;;9.80;99.90;;;;;;5057340;28;20132;-32
2023/03/22 10:40:20;;;;;;;13.77;4.10;;;9.70;99.90;;;;;;5056747;28;20414;-33
2023/03/22 10:42:56;;;;;;;11.73;4.22;;;9.70;99.90;;;;;;5075089;28;20052;-32
2023/03/22 10:45:24;;;;;;;13.93;4.40;;;9.70;99.90;;;;;;5074655;28;20437;-30
2023/03/22 10:48:07;;;;;;;9.68;3.85;;;9.60;99.90;;;;;;5072818;28;20090;-31
2023/03/22 10:50:41;;;;;;;11.75;2.72;;;9.60;99.90;;;;;;5073703;28;20052;-31
2023/03/22 10:53:46;;;;;;;15.43;4.13;;;9.70;99.90;;;;;;5075212;28;20118;-29
2023/03/22 10:56:15;;;;;;;8.65;3.20;;;9.60;99.90;;;;;;5073733;28;20062;-31
2023/03/22 10:58:41;;;;;;;11.55;3.85;;;9.70;99.90;;;;;;5074193;28;20102;-30
2023/03/22 11:01:15;;;;;;;12.48;4.00;;;9.80;99.90;;;;;;5074121;28;20048;-30
2023/03/22 11:03:43;;;;;;;11.68;3.42;;;9.80;99.90;;;;;;5074183;28;20044;-29
2023/03/22 11:06:21;;;;;;;9.65;3.67;;;9.70;99.90;;;;;;5056137;28;20525;-29
2023/03/22 11:08:53;;;;;;;11.73;3.75;;;9.80;99.90;;;;;;5074949;28;20040;-29
2023/03/22 11:11:24;;;;;;;8.18;3.65;;;9.80;99.90;;;;;;5074903;28;20044;-29
2023/03/22 11:13:58;;;;;;;8.20;3.47;;;9.90;99.90;;;;;;5072641;28;20097;-30
2023/03/22 11:16:25;;;;;;;13.52;3.88;;;9.80;99.90;;;;;;5074031;28;20192;-28
2023/03/22 11:18:51;;;;;;;7.30;3.75;;;9.80;99.90;;;;;;5073981;28;20048;-28
2023/03/22 11:21:18;;;;;;;8.25;3.70;;;9.80;99.90;;;;;;5074432;28;20497;-28
2023/03/22 11:24:14;;;;;;;5.22;2.63;;;9.80;99.90;;;;;;5073214;28;20052;-27
2023/03/22 11:26:40;;;;;;;8.88;3.78;;;9.90;99.90;;;;;;5073999;28;20056;-27
2023/03/22 11:29:20;;;;;;;7.75;3.00;;;9.90;99.90;;;;;;5073788;28;20107;-29
2023/03/22 11:31:55;;;;;;;10.80;3.63;;;10.00;99.90;;;;;;5074065;28;20075;-28
2023/03/22 11:34:23;;;;;;;4.90;3.10;;;10.00;99.90;;;;;;5074394;28;20123;-27
2023/03/22 11:36:55;;;;;;;6.55;2.72;;;10.10;99.90;;;;;;5072693;28;20507;-27
2023/03/22 11:39:24;;;;;;;8.98;3.97;;;10.00;99.90;;;;;;5073604;28;20044;-28
2023/03/22 11:41:55;;;;;;;5.32;3.55;;;10.00;99.90;;;;;;5073659;28;20048;-27
2023/03/22 11:44:21;;;;;;;9.02;3.90;;;9.90;99.90;;;;;;5055953;28;20105;-27
2023/03/22 11:46:59;;;;;;;8.63;3.47;;;10.00;99.90;;;;;;5073539;28;20504;-27
2023/03/22 11:49:51;;;;;;;9.02;4.70;;;10.10;99.90;;;;;;5073670;28;20110;-27
2023/03/22 11:52:21;;;;;;;10.63;4.10;;;10.00;99.90;;;;;;5073921;28;20102;-27
2023/03/22 11:54:48;;;;;;;5.88;3.13;;;10.10;99.90;;;;;;5073885;28;20044;-28
2023/03/22 11:57:19;;;;;;;6.18;2.90;;;10.10;99.90;;;;;;5074325;28;20115;-27
2023/03/22 12:00:05;;;;;;;9.35;3.78;;;10.10;99.90;;;;;;5073762;28;20052;-27
2023/03/22 12:02:43;;;;;;;12.38;4.05;;;10.10;99.90;;;;;;5078526;28;20368;-27
2023/03/22 12:05:27;;;;;;;6.63;2.75;;;10.10;99.90;;;;;;5059389;28;20150;-28
2023/03/22 12:07:59;;;;;;;;;;;10.10;99.90;;;;;;5077111;28;20048;-28
2023/03/22 12:10:32;;;;;;;12.95;3.58;;;10.10;99.90;;;;;;5077513;28;19928;-28
2023/03/22 12:13:09;;;;;;;4.70;2.38;;;10.10;99.90;;;;;;5077384;28;20051;-28
2023/03/22 12:15:39;;;;;;;9.77;3.90;;;10.10;99.90;;;;;;5076819;28;20402;-28
2023/03/22 12:18:18;;;;;;;10.95;4.88;;;10.10;99.90;;;;;;5077350;28;20051;-29
2023/03/22 12:20:57;;;;;;;9.65;3.90;;;10.10;99.90;;;;;;5077900;28;20044;-30
2023/03/22 12:23:26;;;;;;;8.18;3.15;;;10.10;99.90;;;;;;5077509;28;20044;-28
2023/03/22 12:26:25;;;;;;;8.93;3.60;;;10.10;99.90;;;;;;5076146;28;20045;-28
2023/03/22 12:28:53;;;;;;;11.25;3.10;;;10.20;99.90;;;;;;5077659;28;20084;-28
2023/03/22 12:31:31;;;;;;;8.43;3.15;;;10.10;99.90;;;;;;5077063;28;20056;-28
2023/03/22 12:34:01;;;;;;;7.95;3.38;;;10.20;99.90;;;;;;5076778;28;20417;-28
2023/03/22 12:36:44;;;;;;;6.82;2.63;;;10.10;99.90;;;;;;5077819;28;20051;-28
2023/03/22 12:39:32;;;;;;;6.57;3.28;;;10.00;99.90;;;;;;5077795;28;20352;-27
2023/03/22 12:42:24;;;;;;;11.40;4.43;;;10.00;99.90;;;;;;5076848;28;20048;-27
2023/03/22 12:45:02;;;;;;;8.60;3.90;;;10.00;99.90;;;;;;5076836;28;20061;-28
2023/03/22 12:47:40;;;;;;;5.85;2.80;;;9.90;99.90;;;;;;5077583;28;20119;-25
2023/03/22 12:50:43;;;;;;;6.18;3.78;;;9.90;99.90;;;;;;5075554;28;20049;-25
2023/03/22 12:53:14;;;;;;;11.65;4.65;;;9.80;99.90;;;;;;5077195;28;20056;-25
2023/03/22 12:55:40;;;;;;;10.43;4.30;;;9.90;99.90;;;;;;5076602;28;20119;-26
2023/03/22 12:58:08;;;;;;;12.02;4.38;;;10.00;99.90;;;;;;5076541;28;20040;-26
2023/03/22 13:00:48;;;;;;;9.05;3.35;;;10.00;99.90;;;;;;5076577;28;20055;-25
2023/03/22 13:03:16;;;;;;;8.80;4.82;;;10.00;99.90;;;;;;5076517;28;20098;-25